Time;durP1;ratioP1;P1;durP2;ratioP2;P2;SDS_P1;SDS_P2;PMS_P1;PMS_P2;Temp;Humidity;BMP_temperature;BMP_pressure;BME280_temperature;BME280_humidity;BME280_pressure;Samples;Min_cycle;Max_cycle;Signal;HPM_P1;HPM_P2
2022/07/02 00:00:02;;;;;;;;;;;;;;;;;;351567;28;802;-76
2022/07/02 00:00:14;;;;;;;;;;;;;;;;;;351587;28;948;-76
2022/07/02 00:00:24;;;;;;;;;;;;;;;;;;351550;28;975;-76
2022/07/02 00:00:36;;;;;;;;;;;;;;;;;;351584;28;992;-76
2022/07/02 00:00:46;;;;;;;;;;;;;;;;;;351580;28;928;-76
2022/07/02 00:00:57;;;;;;;;;;;;;;;;;;351442;28;1034;-76
2022/07/02 00:01:07;;;;;;;;;;;;;;;;;;351616;28;995;-76
2022/07/02 00:01:19;;;;;;;;;;;;;;;;;;351574;28;904;-76
2022/07/02 00:01:29;;;;;;;;;;;;;;;;;;351366;28;1238;-76
2022/07/02 00:01:41;;;;;;;;;;;;;;;;;;351490;28;900;-76
2022/07/02 00:01:52;;;;;;;;;;;;;;;;;;351590;28;999;-76
2022/07/02 00:02:02;;;;;;;;;;;;;;;;;;351537;28;980;-76
2022/07/02 00:02:14;;;;;;;;;;;;;;;;;;351619;28;924;-76
2022/07/02 00:02:25;;;;;;;;;;;;;;;;;;351600;28;920;-76
2022/07/02 00:02:36;;;;;;;;;;;;;;;;;;351541;28;901;-76
2022/07/02 00:02:49;;;;;;;;;;;;;;;;;;351534;28;925;-76
2022/07/02 00:02:59;;;;;;;;;;;;;;;;;;351611;28;976;-76
2022/07/02 00:03:10;;;;;;;;;;;;;;;;;;350937;28;1816;-76
2022/07/02 00:03:23;;;;;;;;;;;;;;;;;;350201;28;1150;-76
2022/07/02 00:03:36;;;;;;;;;;;;;;;;;;350192;28;921;-76
2022/07/02 00:03:55;;;;;;;;;;;;;;;;;;350095;28;940;-76
2022/07/02 00:04:06;;;;;;;;;;;;;;;;;;350098;28;1000;-76
2022/07/02 00:04:19;;;;;;;;;;;;;;;;;;350165;28;959;-76
2022/07/02 00:04:31;;;;;;;;;;;;;;;;;;350183;28;960;-76
2022/07/02 00:04:44;;;;;;;;;;;;;;;;;;350194;28;853;-76
2022/07/02 00:04:58;;;;;;;;;;;;;;;;;;350151;28;921;-76
2022/07/02 00:05:12;;;;;;;;;;;;;;;;;;350169;28;971;-76
2022/07/02 00:05:22;;;;;;;;;;;;;;;;;;350166;28;1173;-76
2022/07/02 00:05:36;;;;;;;;;;;;;;;;;;350135;28;1011;-76
2022/07/02 00:05:51;;;;;;;;;;;;;;;;;;350121;28;1008;-76
2022/07/02 00:06:01;;;;;;;;;;;;;;;;;;350170;28;925;-76
2022/07/02 00:06:12;;;;;;;;;;;;;;;;;;350084;27;848;-76
2022/07/02 00:06:25;;;;;;;;;;;;;;;;;;350171;28;975;-76
2022/07/02 00:06:37;;;;;;;;;;;;;;;;;;350174;28;996;-76
2022/07/02 00:06:47;;;;;;;;;;;;;;;;;;350099;28;987;-76
2022/07/02 00:06:58;;;;;;;;;;;;;;;;;;350191;28;683;-76
2022/07/02 00:07:08;;;;;;;;;;;;;;;;;;350168;28;920;-77
2022/07/02 00:07:19;;;;;;;;;;;;;;;;;;350109;28;948;-76
2022/07/02 00:07:29;;;;;;;;;;;;;;;;;;351107;28;1312;-76
2022/07/02 00:07:39;;;;;;;;;;;;;;;;;;351542;28;1526;-76
2022/07/02 00:07:50;;;;;;;;;;;;;;;;;;351536;28;936;-76
2022/07/02 00:08:01;;;;;;;;;;;;;;;;;;351537;28;987;-76
2022/07/02 00:08:12;;;;;;;;;;;;;;;;;;351476;28;987;-76
2022/07/02 00:08:25;;;;;;;;;;;;;;;;;;351583;28;979;-76
2022/07/02 00:08:37;;;;;;;;;;;;;;;;;;351556;28;921;-76
2022/07/02 00:08:47;;;;;;;;;;;;;;;;;;351582;28;980;-77
2022/07/02 00:08:59;;;;;;;;;;;;;;;;;;351582;27;925;-76
2022/07/02 00:09:10;;;;;;;;;;;;;;;;;;351564;28;971;-76
2022/07/02 00:09:20;;;;;;;;;;;;;;;;;;351602;28;921;-76
2022/07/02 00:09:31;;;;;;;;;;;;;;;;;;351599;28;948;-76
2022/07/02 00:09:41;;;;;;;;;;;;;;;;;;351619;28;825;-76
2022/07/02 00:09:55;;;;;;;;;;;;;;;;;;351521;28;837;-76
2022/07/02 00:10:06;;;;;;;;;;;;;;;;;;351545;28;1019;-76
2022/07/02 00:10:17;;;;;;;;;;;;;;;;;;351513;28;1007;-76
2022/07/02 00:10:27;;;;;;;;;;;;;;;;;;351552;27;794;-76
2022/07/02 00:10:38;;;;;;;;;;;;;;;;;;351539;28;959;-76
2022/07/02 00:10:50;;;;;;;;;;;;;;;;;;351555;28;932;-76
2022/07/02 00:11:02;;;;;;;;;;;;;;;;;;351546;28;1052;-76
2022/07/02 00:11:15;;;;;;;;;;;;;;;;;;351545;28;1035;-76
2022/07/02 00:11:26;;;;;;;;;;;;;;;;;;350895;28;1781;-76
2022/07/02 00:11:37;;;;;;;;;;;;;;;;;;350664;28;1727;-76
2022/07/02 00:11:48;;;;;;;;;;;;;;;;;;351619;28;766;-76
2022/07/02 00:11:59;;;;;;;;;;;;;;;;;;351607;28;900;-76
2022/07/02 00:12:10;;;;;;;;;;;;;;;;;;351593;28;868;-76
2022/07/02 00:12:20;;;;;;;;;;;;;;;;;;351495;28;1003;-76
2022/07/02 00:12:31;;;;;;;;;;;;;;;;;;351518;28;1906;-76
2022/07/02 00:12:41;;;;;;;;;;;;;;;;;;351593;28;924;-76
2022/07/02 00:12:51;;;;;;;;;;;;;;;;;;351559;28;861;-76
2022/07/02 00:13:01;;;;;;;;;;;;;;;;;;351553;28;979;-76
2022/07/02 00:13:12;;;;;;;;;;;;;;;;;;351586;28;940;-76
2022/07/02 00:13:23;;;;;;;;;;;;;;;;;;351586;28;940;-76
2022/07/02 00:13:34;;;;;;;;;;;;;;;;;;350029;28;1800;-76
2022/07/02 00:13:44;;;;;;;;;;;;;;;;;;350147;28;1133;-76
2022/07/02 00:13:55;;;;;;;;;;;;;;;;;;350122;28;909;-76
2022/07/02 00:14:05;;;;;;;;;;;;;;;;;;350141;28;1051;-76
2022/07/02 00:14:16;;;;;;;;;;;;;;;;;;350147;28;1082;-76
2022/07/02 00:14:26;;;;;;;;;;;;;;;;;;350081;28;817;-76
2022/07/02 00:14:36;;;;;;;;;;;;;;;;;;350177;28;975;-76
2022/07/02 00:14:50;;;;;;;;;;;;;;;;;;349911;28;1907;-76
2022/07/02 00:15:00;;;;;;;;;;;;;;;;;;351097;28;929;-76
2022/07/02 00:15:10;;;;;;;;;;;;;;;;;;351586;28;896;-76
2022/07/02 00:15:21;;;;;;;;;;;;;;;;;;351581;28;920;-76
2022/07/02 00:15:33;;;;;;;;;;;;;;;;;;351573;28;794;-76
2022/07/02 00:15:44;;;;;;;;;;;;;;;;;;351584;28;948;-76
2022/07/02 00:15:54;;;;;;;;;;;;;;;;;;351545;28;916;-76
2022/07/02 00:16:07;;;;;;;;;;;;;;;;;;351570;28;940;-76
2022/07/02 00:16:18;;;;;;;;;;;;;;;;;;351568;28;888;-76
2022/07/02 00:16:29;;;;;;;;;;;;;;;;;;351561;28;924;-76
2022/07/02 00:16:39;;;;;;;;;;;;;;;;;;351581;28;920;-76
2022/07/02 00:16:51;;;;;;;;;;;;;;;;;;351568;28;912;-76
2022/07/02 00:17:01;;;;;;;;;;;;;;;;;;351549;28;980;-76
2022/07/02 00:17:11;;;;;;;;;;;;;;;;;;351501;28;917;-76
2022/07/02 00:17:22;;;;;;;;;;;;;;;;;;351552;28;976;-76
2022/07/02 00:17:32;;;;;;;;;;;;;;;;;;351576;28;833;-76
2022/07/02 00:17:43;;;;;;;;;;;;;;;;;;351525;28;1039;-76
2022/07/02 00:17:53;;;;;;;;;;;;;;;;;;351546;28;1007;-76
2022/07/02 00:18:04;;;;;;;;;;;;;;;;;;351478;27;849;-76
2022/07/02 00:18:14;;;;;;;;;;;;;;;;;;351559;28;928;-76
2022/07/02 00:18:25;;;;;;;;;;;;;;;;;;351550;28;983;-76
2022/07/02 00:18:35;;;;;;;;;;;;;;;;;;351499;28;969;-76
2022/07/02 00:18:46;;;;;;;;;;;;;;;;;;351545;28;940;-76
2022/07/02 00:18:57;;;;;;;;;;;;;;;;;;351508;28;928;-76
2022/07/02 00:19:07;;;;;;;;;;;;;;;;;;351539;28;797;-76
2022/07/02 00:19:17;;;;;;;;;;;;;;;;;;351581;27;924;-76
2022/07/02 00:19:28;;;;;;;;;;;;;;;;;;351546;28;960;-76
2022/07/02 00:19:38;;;;;;;;;;;;;;;;;;351550;28;979;-76
2022/07/02 00:19:50;;;;;;;;;;;;;;;;;;351228;28;1312;-76
2022/07/02 00:20:01;;;;;;;;;;;;;;;;;;351571;28;987;-76
2022/07/02 00:20:11;;;;;;;;;;;;;;;;;;351610;28;924;-76
2022/07/02 00:20:22;;;;;;;;;;;;;;;;;;351573;28;944;-76
2022/07/02 00:20:32;;;;;;;;;;;;;;;;;;351103;28;1788;-76
2022/07/02 00:20:43;;;;;;;;;;;;;;;;;;350459;28;1510;-76
2022/07/02 00:20:54;;;;;;;;;;;;;;;;;;350647;28;1790;-76
2022/07/02 00:21:04;;;;;;;;;;;;;;;;;;350161;28;984;-76
2022/07/02 00:21:15;;;;;;;;;;;;;;;;;;350093;28;1050;-76
2022/07/02 00:21:26;;;;;;;;;;;;;;;;;;350197;28;920;-76
2022/07/02 00:21:39;;;;;;;;;;;;;;;;;;350236;28;802;-76
2022/07/02 00:21:50;;;;;;;;;;;;;;;;;;350176;28;836;-76
2022/07/02 00:22:01;;;;;;;;;;;;;;;;;;350132;28;917;-76
2022/07/02 00:22:12;;;;;;;;;;;;;;;;;;350217;28;829;-76
2022/07/02 00:22:23;;;;;;;;;;;;;;;;;;350220;28;873;-76
2022/07/02 00:22:33;;;;;;;;;;;;;;;;;;350183;28;940;-76
2022/07/02 00:22:43;;;;;;;;;;;;;;;;;;350087;28;811;-76
2022/07/02 00:22:54;;;;;;;;;;;;;;;;;;350121;28;936;-76
2022/07/02 00:23:04;;;;;;;;;;;;;;;;;;350043;28;1163;-76
2022/07/02 00:23:15;;;;;;;;;;;;;;;;;;350174;28;928;-76
2022/07/02 00:23:25;;;;;;;;;;;;;;;;;;350122;28;908;-76
2022/07/02 00:23:35;;;;;;;;;;;;;;;;;;350151;28;971;-76
2022/07/02 00:23:45;;;;;;;;;;;;;;;;;;350171;28;944;-76
2022/07/02 00:23:56;;;;;;;;;;;;;;;;;;350168;28;909;-76
2022/07/02 00:24:07;;;;;;;;;;;;;;;;;;350072;28;909;-76
2022/07/02 00:24:17;;;;;;;;;;;;;;;;;;350194;28;921;-76
2022/07/02 00:24:27;;;;;;;;;;;;;;;;;;350164;28;1004;-76
2022/07/02 00:24:40;;;;;;;;;;;;;;;;;;350184;28;920;-76
2022/07/02 00:24:51;;;;;;;;;;;;;;;;;;350070;28;983;-76
2022/07/02 00:25:01;;;;;;;;;;;;;;;;;;350193;28;766;-76
2022/07/02 00:25:11;;;;;;;;;;;;;;;;;;350150;28;762;-76
2022/07/02 00:25:22;;;;;;;;;;;;;;;;;;350134;28;936;-76
2022/07/02 00:25:37;;;;;;;;;;;;;;;;;;350195;28;786;-76
2022/07/02 00:25:52;;;;;;;;;;;;;;;;;;350073;28;1030;-76
2022/07/02 00:26:14;;;;;;;;;;;;;;;;;;350007;28;1306;-76
2022/07/02 00:26:28;;;;;;;;;;;;;;;;;;350827;28;1217;-76
2022/07/02 00:26:40;;;;;;;;;;;;;;;;;;351471;28;988;-76
2022/07/02 00:26:54;;;;;;;;;;;;;;;;;;351520;28;968;-76
2022/07/02 00:27:05;;;;;;;;;;;;;;;;;;351559;28;908;-76
2022/07/02 00:27:17;;;;;;;;;;;;;;;;;;351504;28;1002;-76
2022/07/02 00:27:30;;;;;;;;;;;;;;;;;;351500;28;1016;-76
2022/07/02 00:27:42;;;;;;;;;;;;;;;;;;351565;28;817;-76
2022/07/02 00:27:52;;;;;;;;;;;;;;;;;;351482;28;1003;-76
2022/07/02 00:28:05;;;;;;;;;;;;;;;;;;351576;28;1003;-76
2022/07/02 00:28:16;;;;;;;;;;;;;;;;;;351509;28;928;-76
2022/07/02 00:28:28;;;;;;;;;;;;;;;;;;351545;28;803;-77
2022/07/02 00:28:41;;;;;;;;;;;;;;;;;;351561;28;968;-77
2022/07/02 00:28:56;;;;;;;;;;;;;;;;;;351552;28;949;-76
2022/07/02 00:29:06;;;;;;;;;;;;;;;;;;351472;28;1039;-76
2022/07/02 00:29:21;;;;;;;;;;;;;;;;;;351522;28;937;-76
2022/07/02 00:29:34;;;;;;;;;;;;;;;;;;351506;28;1028;-76
2022/07/02 00:29:53;;;;;;;;;;;;;;;;;;351510;28;971;-76
2022/07/02 00:30:04;;;;;;;;;;;;;;;;;;351504;28;920;-76
2022/07/02 00:30:14;;;;;;;;;;;;;;;;;;351536;28;865;-76
2022/07/02 00:30:26;;;;;;;;;;;;;;;;;;351505;28;872;-76
2022/07/02 00:30:37;;;;;;;;;;;;;;;;;;351590;28;940;-76
2022/07/02 00:30:47;;;;;;;;;;;;;;;;;;351537;28;980;-76
2022/07/02 00:30:58;;;;;;;;;;;;;;;;;;351568;28;924;-76
2022/07/02 00:31:08;;;;;;;;;;;;;;;;;;351412;28;1000;-76
2022/07/02 00:31:18;;;;;;;;;;;;;;;;;;351526;28;813;-76
2022/07/02 00:31:29;;;;;;;;;;;;;;;;;;351515;28;1035;-76
2022/07/02 00:31:40;;;;;;;;;;;;;;;;;;351566;28;849;-76
2022/07/02 00:31:50;;;;;;;;;;;;;;;;;;351487;28;1000;-76
2022/07/02 00:32:00;;;;;;;;;;;;;;;;;;351596;28;877;-76
2022/07/02 00:32:10;;;;;;;;;;;;;;;;;;351516;28;987;-76
2022/07/02 00:32:21;;;;;;;;;;;;;;;;;;351506;28;1040;-76
2022/07/02 00:32:32;;;;;;;;;;;;;;;;;;351418;28;1985;-76
2022/07/02 00:32:44;;;;;;;;;;;;;;;;;;351527;27;928;-76
2022/07/02 00:32:54;;;;;;;;;;;;;;;;;;351534;28;956;-76
2022/07/02 00:33:06;;;;;;;;;;;;;;;;;;351552;28;912;-76
2022/07/02 00:33:16;;;;;;;;;;;;;;;;;;351392;28;921;-76
2022/07/02 00:33:29;;;;;;;;;;;;;;;;;;351550;28;842;-76
2022/07/02 00:33:40;;;;;;;;;;;;;;;;;;351514;27;1117;-76
2022/07/02 00:33:50;;;;;;;;;;;;;;;;;;351591;28;846;-76
2022/07/02 00:34:01;;;;;;;;;;;;;;;;;;351521;28;988;-76
2022/07/02 00:34:11;;;;;;;;;;;;;;;;;;351615;28;777;-76
2022/07/02 00:34:22;;;;;;;;;;;;;;;;;;351472;28;1031;-76
2022/07/02 00:34:35;;;;;;;;;;;;;;;;;;351596;28;987;-76
2022/07/02 00:34:46;;;;;;;;;;;;;;;;;;351475;27;873;-76
2022/07/02 00:34:57;;;;;;;;;;;;;;;;;;351521;28;916;-76
2022/07/02 00:35:09;;;;;;;;;;;;;;;;;;351474;28;963;-76
2022/07/02 00:35:19;;;;;;;;;;;;;;;;;;350832;28;1769;-76
2022/07/02 00:35:29;;;;;;;;;;;;;;;;;;350160;28;1008;-76
2022/07/02 00:35:40;;;;;;;;;;;;;;;;;;350130;28;908;-76
2022/07/02 00:35:51;;;;;;;;;;;;;;;;;;350164;28;865;-76
2022/07/02 00:36:02;;;;;;;;;;;;;;;;;;350183;28;806;-76
2022/07/02 00:36:21;;;;;;;;;;;;;;;;;;350098;28;979;-76
2022/07/02 00:36:32;;;;;;;;;;;;;;;;;;350169;28;987;-76
2022/07/02 00:36:43;;;;;;;;;;;;;;;;;;350122;28;960;-76
2022/07/02 00:36:55;;;;;;;;;;;;;;;;;;350171;28;854;-76
2022/07/02 00:37:08;;;;;;;;;;;;;;;;;;350431;28;1264;-76
2022/07/02 00:37:19;;;;;;;;;;;;;;;;;;351513;28;936;-76
2022/07/02 00:37:30;;;;;;;;;;;;;;;;;;351469;28;941;-76
2022/07/02 00:37:41;;;;;;;;;;;;;;;;;;351545;28;862;-76
2022/07/02 00:37:52;;;;;;;;;;;;;;;;;;351527;28;980;-76
2022/07/02 00:38:03;;;;;;;;;;;;;;;;;;351530;28;909;-76
2022/07/02 00:38:13;;;;;;;;;;;;;;;;;;351426;28;1148;-76
2022/07/02 00:38:23;;;;;;;;;;;;;;;;;;351491;28;952;-76
2022/07/02 00:38:34;;;;;;;;;;;;;;;;;;351464;28;1200;-76
2022/07/02 00:38:44;;;;;;;;;;;;;;;;;;351536;28;928;-76
2022/07/02 00:38:54;;;;;;;;;;;;;;;;;;351515;28;948;-76
2022/07/02 00:39:04;;;;;;;;;;;;;;;;;;351529;28;841;-76
2022/07/02 00:39:14;;;;;;;;;;;;;;;;;;351569;28;972;-76
2022/07/02 00:39:25;;;;;;;;;;;;;;;;;;351446;28;920;-76
2022/07/02 00:39:35;;;;;;;;;;;;;;;;;;351521;28;912;-76
2022/07/02 00:39:46;;;;;;;;;;;;;;;;;;351500;27;925;-76
2022/07/02 00:39:56;;;;;;;;;;;;;;;;;;351535;28;979;-76
2022/07/02 00:40:07;;;;;;;;;;;;;;;;;;351517;28;920;-76
2022/07/02 00:40:18;;;;;;;;;;;;;;;;;;351526;28;967;-76
2022/07/02 00:40:30;;;;;;;;;;;;;;;;;;351460;28;1040;-76
2022/07/02 00:40:40;;;;;;;;;;;;;;;;;;351525;28;1027;-76
2022/07/02 00:40:52;;;;;;;;;;;;;;;;;;351538;28;912;-76
2022/07/02 00:41:03;;;;;;;;;;;;;;;;;;351484;28;916;-76
2022/07/02 00:41:14;;;;;;;;;;;;;;;;;;351532;28;920;-76
2022/07/02 00:41:26;;;;;;;;;;;;;;;;;;351537;28;885;-76
2022/07/02 00:41:37;;;;;;;;;;;;;;;;;;351463;28;987;-76
2022/07/02 00:41:48;;;;;;;;;;;;;;;;;;351560;28;967;-76
2022/07/02 00:41:59;;;;;;;;;;;;;;;;;;351554;28;924;-76
2022/07/02 00:42:10;;;;;;;;;;;;;;;;;;351495;28;975;-76
2022/07/02 00:42:24;;;;;;;;;;;;;;;;;;351448;28;947;-76
2022/07/02 00:42:34;;;;;;;;;;;;;;;;;;351558;28;836;-76
2022/07/02 00:42:45;;;;;;;;;;;;;;;;;;351510;28;1118;-76
2022/07/02 00:42:55;;;;;;;;;;;;;;;;;;351528;28;989;-76
2022/07/02 00:43:06;;;;;;;;;;;;;;;;;;351572;28;924;-76
2022/07/02 00:43:18;;;;;;;;;;;;;;;;;;351508;28;971;-76
2022/07/02 00:43:28;;;;;;;;;;;;;;;;;;351508;28;1010;-76
2022/07/02 00:43:38;;;;;;;;;;;;;;;;;;351507;28;849;-76
2022/07/02 00:43:49;;;;;;;;;;;;;;;;;;351493;28;998;-76
2022/07/02 00:44:00;;;;;;;;;;;;;;;;;;351548;28;848;-76
2022/07/02 00:44:10;;;;;;;;;;;;;;;;;;351574;28;927;-76
2022/07/02 00:44:22;;;;;;;;;;;;;;;;;;351386;28;1156;-76
2022/07/02 00:44:32;;;;;;;;;;;;;;;;;;351467;28;770;-76
2022/07/02 00:44:45;;;;;;;;;;;;;;;;;;351546;28;829;-76
2022/07/02 00:44:56;;;;;;;;;;;;;;;;;;351518;28;998;-76
2022/07/02 00:45:07;;;;;;;;;;;;;;;;;;351460;28;916;-76
2022/07/02 00:45:18;;;;;;;;;;;;;;;;;;351451;28;1178;-76
2022/07/02 00:45:28;;;;;;;;;;;;;;;;;;351526;28;963;-76
2022/07/02 00:45:38;;;;;;;;;;;;;;;;;;351523;28;797;-76
2022/07/02 00:45:50;;;;;;;;;;;;;;;;;;351460;28;995;-76
2022/07/02 00:46:00;;;;;;;;;;;;;;;;;;351512;28;1019;-76
2022/07/02 00:46:10;;;;;;;;;;;;;;;;;;351549;28;908;-76
2022/07/02 00:46:22;;;;;;;;;;;;;;;;;;351514;28;948;-76
2022/07/02 00:46:34;;;;;;;;;;;;;;;;;;351366;28;1323;-76
2022/07/02 00:46:45;;;;;;;;;;;;;;;;;;351529;28;920;-76
2022/07/02 00:46:58;;;;;;;;;;;;;;;;;;351574;28;1161;-76
2022/07/02 00:47:09;;;;;;;;;;;;;;;;;;351518;28;920;-76
2022/07/02 00:47:21;;;;;;;;;;;;;;;;;;351529;28;911;-76
2022/07/02 00:47:32;;;;;;;;;;;;;;;;;;351493;28;1018;-76
2022/07/02 00:47:43;;;;;;;;;;;;;;;;;;351503;28;1032;-76
2022/07/02 00:47:54;;;;;;;;;;;;;;;;;;351437;28;940;-76
2022/07/02 00:48:04;;;;;;;;;;;;;;;;;;351548;28;1040;-76
2022/07/02 00:48:15;;;;;;;;;;;;;;;;;;351544;28;924;-76
2022/07/02 00:48:25;;;;;;;;;;;;;;;;;;351502;28;952;-76
2022/07/02 00:48:35;;;;;;;;;;;;;;;;;;351449;28;998;-76
2022/07/02 00:48:45;;;;;;;;;;;;;;;;;;351541;28;924;-76
2022/07/02 00:48:56;;;;;;;;;;;;;;;;;;351535;28;991;-76
2022/07/02 00:49:08;;;;;;;;;;;;;;;;;;351540;28;963;-76
2022/07/02 00:49:18;;;;;;;;;;;;;;;;;;351492;28;943;-76
2022/07/02 00:49:30;;;;;;;;;;;;;;;;;;351533;28;904;-76
2022/07/02 00:49:40;;;;;;;;;;;;;;;;;;351463;28;1063;-76
2022/07/02 00:49:51;;;;;;;;;;;;;;;;;;351112;28;1276;-76
2022/07/02 00:50:04;;;;;;;;;;;;;;;;;;351515;28;991;-76
2022/07/02 00:50:15;;;;;;;;;;;;;;;;;;350897;28;1711;-76
2022/07/02 00:50:25;;;;;;;;;;;;;;;;;;351443;28;960;-76
2022/07/02 00:50:35;;;;;;;;;;;;;;;;;;351517;27;915;-76
2022/07/02 00:50:46;;;;;;;;;;;;;;;;;;351514;28;817;-76
2022/07/02 00:50:56;;;;;;;;;;;;;;;;;;351462;28;1006;-76
2022/07/02 00:51:06;;;;;;;;;;;;;;;;;;351517;28;885;-76
2022/07/02 00:51:16;;;;;;;;;;;;;;;;;;351413;28;1017;-76
2022/07/02 00:51:26;;;;;;;;;;;;;;;;;;351489;28;907;-76
2022/07/02 00:51:37;;;;;;;;;;;;;;;;;;351539;28;786;-76
2022/07/02 00:51:47;;;;;;;;;;;;;;;;;;351522;28;920;-76
2022/07/02 00:51:57;;;;;;;;;;;;;;;;;;351423;28;833;-76
2022/07/02 00:52:07;;;;;;;;;;;;;;;;;;351548;28;983;-76
2022/07/02 00:52:18;;;;;;;;;;;;;;;;;;351522;28;943;-76
2022/07/02 00:52:28;;;;;;;;;;;;;;;;;;351239;27;1960;-76
2022/07/02 00:52:38;;;;;;;;;;;;;;;;;;351375;28;1558;-76
2022/07/02 00:52:49;;;;;;;;;;;;;;;;;;351416;28;1483;-76
2022/07/02 00:52:59;;;;;;;;;;;;;;;;;;351518;28;872;-76
2022/07/02 00:53:09;;;;;;;;;;;;;;;;;;351515;28;964;-76
2022/07/02 00:53:19;;;;;;;;;;;;;;;;;;351557;28;829;-76
2022/07/02 00:53:29;;;;;;;;;;;;;;;;;;351484;28;928;-76
2022/07/02 00:53:40;;;;;;;;;;;;;;;;;;351396;28;1130;-76
2022/07/02 00:53:50;;;;;;;;;;;;;;;;;;351547;28;896;-76
2022/07/02 00:54:01;;;;;;;;;;;;;;;;;;351421;28;928;-76
2022/07/02 00:54:11;;;;;;;;;;;;;;;;;;351558;28;825;-76
2022/07/02 00:54:21;;;;;;;;;;;;;;;;;;351528;28;960;-76
2022/07/02 00:54:32;;;;;;;;;;;;;;;;;;351531;28;864;-76
2022/07/02 00:54:42;;;;;;;;;;;;;;;;;;351424;28;1031;-76
2022/07/02 00:54:52;;;;;;;;;;;;;;;;;;351446;28;1139;-76
2022/07/02 00:55:02;;;;;;;;;;;;;;;;;;351517;28;959;-76
2022/07/02 00:55:13;;;;;;;;;;;;;;;;;;351522;28;940;-76
2022/07/02 00:55:23;;;;;;;;;;;;;;;;;;351489;28;908;-76
2022/07/02 00:55:33;;;;;;;;;;;;;;;;;;351527;28;861;-76
2022/07/02 00:55:44;;;;;;;;;;;;;;;;;;351482;28;944;-76
2022/07/02 00:55:55;;;;;;;;;;;;;;;;;;351516;28;860;-76
2022/07/02 00:56:05;;;;;;;;;;;;;;;;;;351462;28;885;-76
2022/07/02 00:56:15;;;;;;;;;;;;;;;;;;351506;28;990;-76
2022/07/02 00:56:26;;;;;;;;;;;;;;;;;;351529;28;916;-76
2022/07/02 00:56:36;;;;;;;;;;;;;;;;;;351547;28;920;-76
2022/07/02 00:56:47;;;;;;;;;;;;;;;;;;351437;28;908;-76
2022/07/02 00:56:57;;;;;;;;;;;;;;;;;;351556;28;920;-76
2022/07/02 00:57:07;;;;;;;;;;;;;;;;;;351522;28;924;-76
2022/07/02 00:57:18;;;;;;;;;;;;;;;;;;351546;28;801;-76
2022/07/02 00:57:30;;;;;;;;;;;;;;;;;;351451;28;975;-76
2022/07/02 00:57:40;;;;;;;;;;;;;;;;;;351501;28;900;-76
2022/07/02 00:57:51;;;;;;;;;;;;;;;;;;351411;28;1162;-76
2022/07/02 00:58:01;;;;;;;;;;;;;;;;;;351508;28;976;-76
2022/07/02 00:58:11;;;;;;;;;;;;;;;;;;351478;28;840;-76
2022/07/02 00:58:22;;;;;;;;;;;;;;;;;;351511;28;916;-76
2022/07/02 00:58:32;;;;;;;;;;;;;;;;;;351553;28;912;-76
2022/07/02 00:58:43;;;;;;;;;;;;;;;;;;351532;28;987;-76
2022/07/02 00:58:53;;;;;;;;;;;;;;;;;;351441;28;998;-76
2022/07/02 00:59:06;;;;;;;;;;;;;;;;;;351567;28;887;-76
2022/07/02 00:59:16;;;;;;;;;;;;;;;;;;351558;28;798;-76
2022/07/02 00:59:26;;;;;;;;;;;;;;;;;;351565;27;825;-76
2022/07/02 00:59:37;;;;;;;;;;;;;;;;;;351452;28;865;-76
2022/07/02 00:59:48;;;;;;;;;;;;;;;;;;351484;28;1003;-76
2022/07/02 00:59:58;;;;;;;;;;;;;;;;;;351477;28;1004;-76
2022/07/02 01:00:08;;;;;;;;;;;;;;;;;;351291;28;1132;-76
2022/07/02 01:00:19;;;;;;;;;;;;;;;;;;351446;28;932;-76
2022/07/02 01:00:29;;;;;;;;;;;;;;;;;;351390;28;1027;-76
2022/07/02 01:00:39;;;;;;;;;;;;;;;;;;351455;28;916;-76
2022/07/02 01:00:49;;;;;;;;;;;;;;;;;;351490;28;789;-76
2022/07/02 01:01:00;;;;;;;;;;;;;;;;;;351514;28;920;-76
2022/07/02 01:01:10;;;;;;;;;;;;;;;;;;351469;28;979;-76
2022/07/02 01:01:21;;;;;;;;;;;;;;;;;;351523;28;983;-76
2022/07/02 01:01:32;;;;;;;;;;;;;;;;;;351473;28;1103;-76
2022/07/02 01:01:42;;;;;;;;;;;;;;;;;;351460;28;1067;-76
2022/07/02 01:01:52;;;;;;;;;;;;;;;;;;351479;28;944;-76
2022/07/02 01:02:04;;;;;;;;;;;;;;;;;;351488;27;1116;-76
2022/07/02 01:02:15;;;;;;;;;;;;;;;;;;351471;28;869;-76
2022/07/02 01:02:27;;;;;;;;;;;;;;;;;;351432;28;1007;-76
2022/07/02 01:02:38;;;;;;;;;;;;;;;;;;351500;28;924;-76
2022/07/02 01:02:49;;;;;;;;;;;;;;;;;;351445;28;897;-76
2022/07/02 01:02:59;;;;;;;;;;;;;;;;;;351510;28;860;-76
2022/07/02 01:03:10;;;;;;;;;;;;;;;;;;351514;28;864;-76
2022/07/02 01:03:21;;;;;;;;;;;;;;;;;;351361;28;981;-76
2022/07/02 01:03:34;;;;;;;;;;;;;;;;;;351253;28;1000;-76
2022/07/02 01:03:45;;;;;;;;;;;;;;;;;;351417;28;975;-76
2022/07/02 01:03:57;;;;;;;;;;;;;;;;;;351445;28;1082;-76
2022/07/02 01:04:08;;;;;;;;;;;;;;;;;;351496;28;948;-76
2022/07/02 01:04:18;;;;;;;;;;;;;;;;;;351505;28;924;-76
2022/07/02 01:04:29;;;;;;;;;;;;;;;;;;351420;28;944;-76
2022/07/02 01:04:40;;;;;;;;;;;;;;;;;;351482;28;982;-76
2022/07/02 01:04:52;;;;;;;;;;;;;;;;;;350634;28;1871;-76
2022/07/02 01:05:02;;;;;;;;;;;;;;;;;;350026;28;975;-76
2022/07/02 01:05:13;;;;;;;;;;;;;;;;;;350081;28;1012;-76
2022/07/02 01:05:23;;;;;;;;;;;;;;;;;;350066;28;1003;-76
2022/07/02 01:05:34;;;;;;;;;;;;;;;;;;350139;28;925;-76
2022/07/02 01:05:45;;;;;;;;;;;;;;;;;;350090;28;928;-76
2022/07/02 01:05:56;;;;;;;;;;;;;;;;;;350101;28;841;-76
2022/07/02 01:06:06;;;;;;;;;;;;;;;;;;350039;28;1244;-76
2022/07/02 01:06:17;;;;;;;;;;;;;;;;;;350101;28;952;-76
2022/07/02 01:06:30;;;;;;;;;;;;;;;;;;350057;28;979;-76
2022/07/02 01:06:41;;;;;;;;;;;;;;;;;;350107;28;959;-76
2022/07/02 01:06:53;;;;;;;;;;;;;;;;;;350085;28;1015;-76
2022/07/02 01:07:05;;;;;;;;;;;;;;;;;;350076;28;940;-76
2022/07/02 01:07:16;;;;;;;;;;;;;;;;;;350064;28;1051;-76
2022/07/02 01:07:27;;;;;;;;;;;;;;;;;;350182;28;864;-76
2022/07/02 01:07:38;;;;;;;;;;;;;;;;;;349938;28;1137;-76
2022/07/02 01:10:19;;;;;;;;;;;;;;;;;;350048;28;976;-76
2022/07/02 01:10:29;;;;;;;;;;;;;;;;;;350013;28;952;-76
2022/07/02 01:10:44;;;;;;;;;;;;;;;;;;350045;28;1118;-77
2022/07/02 01:10:54;;;;;;;;;;;;;;;;;;350103;28;852;-76
2022/07/02 01:11:04;;;;;;;;;;;;;;;;;;350035;28;1086;-76
2022/07/02 01:11:15;;;;;;;;;;;;;;;;;;350028;28;996;-76
2022/07/02 01:11:25;;;;;;;;;;;;;;;;;;349953;28;1043;-76
2022/07/02 01:11:35;;;;;;;;;;;;;;;;;;350048;28;1027;-76
2022/07/02 01:11:46;;;;;;;;;;;;;;;;;;350137;28;943;-76
2022/07/02 01:11:59;;;;;;;;;;;;;;;;;;350047;28;1049;-76
2022/07/02 01:12:10;;;;;;;;;;;;;;;;;;349967;28;1162;-76
2022/07/02 01:12:24;;;;;;;;;;;;;;;;;;350091;28;975;-76
2022/07/02 01:12:35;;;;;;;;;;;;;;;;;;350056;28;980;-76
2022/07/02 01:12:47;;;;;;;;;;;;;;;;;;350091;28;837;-76
2022/07/02 01:12:58;;;;;;;;;;;;;;;;;;350075;28;913;-76
2022/07/02 01:13:08;;;;;;;;;;;;;;;;;;350119;28;788;-76
2022/07/02 01:13:19;;;;;;;;;;;;;;;;;;350070;28;932;-76
2022/07/02 01:13:33;;;;;;;;;;;;;;;;;;350099;28;920;-76
2022/07/02 01:13:43;;;;;;;;;;;;;;;;;;350096;28;948;-76
2022/07/02 01:13:54;;;;;;;;;;;;;;;;;;350132;28;991;-76
2022/07/02 01:14:04;;;;;;;;;;;;;;;;;;350050;28;918;-76
2022/07/02 01:14:17;;;;;;;;;;;;;;;;;;350096;28;972;-76
2022/07/02 01:14:28;;;;;;;;;;;;;;;;;;350118;28;921;-76
2022/07/02 01:14:38;;;;;;;;;;;;;;;;;;350109;28;810;-76
2022/07/02 01:14:48;;;;;;;;;;;;;;;;;;350046;28;886;-76
2022/07/02 01:14:58;;;;;;;;;;;;;;;;;;350099;28;987;-76
2022/07/02 01:15:09;;;;;;;;;;;;;;;;;;349976;28;987;-76
2022/07/02 01:15:19;;;;;;;;;;;;;;;;;;350020;28;968;-76
2022/07/02 01:15:29;;;;;;;;;;;;;;;;;;349683;28;1808;-76
2022/07/02 01:15:40;;;;;;;;;;;;;;;;;;350503;28;1637;-76
2022/07/02 01:15:50;;;;;;;;;;;;;;;;;;351453;28;908;-76
2022/07/02 01:16:01;;;;;;;;;;;;;;;;;;351480;28;769;-76
2022/07/02 01:16:11;;;;;;;;;;;;;;;;;;351440;28;916;-76
2022/07/02 01:16:21;;;;;;;;;;;;;;;;;;351402;28;1000;-76
2022/07/02 01:16:31;;;;;;;;;;;;;;;;;;351473;28;998;-76
2022/07/02 01:16:41;;;;;;;;;;;;;;;;;;351390;28;948;-76
2022/07/02 01:16:52;;;;;;;;;;;;;;;;;;351453;28;976;-76
2022/07/02 01:17:02;;;;;;;;;;;;;;;;;;351463;27;978;-76
2022/07/02 01:17:12;;;;;;;;;;;;;;;;;;351450;28;952;-76
2022/07/02 01:17:23;;;;;;;;;;;;;;;;;;351472;28;845;-76
2022/07/02 01:17:33;;;;;;;;;;;;;;;;;;351514;28;920;-76
2022/07/02 01:17:43;;;;;;;;;;;;;;;;;;351503;28;924;-76
2022/07/02 01:17:54;;;;;;;;;;;;;;;;;;351415;28;1092;-76
2022/07/02 01:18:04;;;;;;;;;;;;;;;;;;351471;28;782;-76
2022/07/02 01:18:17;;;;;;;;;;;;;;;;;;351467;28;956;-76
2022/07/02 01:18:27;;;;;;;;;;;;;;;;;;351420;28;917;-76
2022/07/02 01:18:38;;;;;;;;;;;;;;;;;;351516;28;832;-76
2022/07/02 01:18:48;;;;;;;;;;;;;;;;;;351531;28;825;-76
2022/07/02 01:18:58;;;;;;;;;;;;;;;;;;351435;28;1066;-76
2022/07/02 01:19:10;;;;;;;;;;;;;;;;;;351461;28;991;-76
2022/07/02 01:19:21;;;;;;;;;;;;;;;;;;351459;28;846;-76
2022/07/02 01:19:31;;;;;;;;;;;;;;;;;;351487;28;939;-76
2022/07/02 01:19:41;;;;;;;;;;;;;;;;;;351388;28;1235;-76
2022/07/02 01:19:52;;;;;;;;;;;;;;;;;;350772;28;1312;-76
2022/07/02 01:20:03;;;;;;;;;;;;;;;;;;351470;28;908;-76
2022/07/02 01:20:13;;;;;;;;;;;;;;;;;;351459;28;952;-76
2022/07/02 01:20:24;;;;;;;;;;;;;;;;;;351496;28;797;-76
2022/07/02 01:20:34;;;;;;;;;;;;;;;;;;351438;28;983;-76
2022/07/02 01:20:45;;;;;;;;;;;;;;;;;;351511;28;849;-76
2022/07/02 01:20:55;;;;;;;;;;;;;;;;;;351494;28;955;-76
2022/07/02 01:21:05;;;;;;;;;;;;;;;;;;351443;28;963;-76
2022/07/02 01:21:16;;;;;;;;;;;;;;;;;;351448;28;964;-76
2022/07/02 01:21:26;;;;;;;;;;;;;;;;;;351340;28;1017;-76